createdAt,value
2019-02-21T00:02:45.783Z,74.19
2019-02-21T00:05:35.555Z,73.78
2019-02-21T00:08:25.370Z,74.04
2019-02-21T00:11:15.152Z,74.48
2019-02-21T00:14:04.944Z,74.53
2019-02-21T00:16:54.771Z,74.48
2019-02-21T00:19:44.549Z,74.41
2019-02-21T00:22:34.330Z,74.46
2019-02-21T00:25:24.158Z,74.18
2019-02-21T00:28:13.964Z,73.84
2019-02-21T00:31:04.273Z,74.13
2019-02-21T00:33:54.482Z,74.21
2019-02-21T00:36:44.444Z,74.18
2019-02-21T00:39:34.206Z,75.05
2019-02-21T00:42:24.030Z,75.88
2019-02-21T00:45:13.815Z,75.66
2019-02-21T00:48:03.610Z,75.73
2019-02-21T00:50:53.395Z,75.79
2019-02-21T00:53:43.189Z,76.41
2019-02-21T00:56:32.937Z,77.05
2019-02-21T00:59:22.842Z,77.59
2019-02-21T01:02:12.629Z,77.22
2019-02-21T01:05:02.458Z,76.49
2019-02-21T01:08:11.093Z,76.20
2019-02-21T01:11:00.870Z,76.49
2019-02-21T01:13:50.703Z,76.95
2019-02-21T01:16:40.507Z,77.55
2019-02-21T01:19:30.343Z,78.07
2019-02-21T01:22:20.138Z,78.02
2019-02-21T01:25:09.925Z,77.85
2019-02-21T01:27:59.701Z,77.26
2019-02-21T01:30:56.716Z,77.64
2019-02-21T01:33:34.411Z,77.86
2019-02-21T01:36:24.225Z,77.87
2019-02-21T01:39:14.067Z,78.58
2019-02-21T01:42:03.851Z,78.35
2019-02-21T01:44:53.676Z,78.21
2019-02-21T01:47:43.447Z,78.59
2019-02-21T01:50:33.277Z,78.64
2019-02-21T01:53:23.038Z,78.80
2019-02-21T01:56:12.900Z,79.35
2019-02-21T01:59:02.619Z,79.64
2019-02-21T02:01:52.415Z,79.82
2019-02-21T02:04:42.189Z,80.00
2019-02-21T02:07:32.000Z,80.22
2019-02-21T02:10:21.806Z,80.36
2019-02-21T02:13:23.703Z,80.18
2019-02-21T02:15:54.677Z,80.35
2019-02-21T02:18:44.448Z,80.29
2019-02-21T02:21:34.203Z,80.27
2019-02-21T02:24:23.993Z,80.22
2019-02-21T02:27:13.743Z,79.68
2019-02-21T02:30:03.542Z,79.90
2019-02-21T02:32:53.279Z,79.88
2019-02-21T02:35:43.075Z,79.72
2019-02-21T02:38:32.881Z,79.42
2019-02-21T02:41:22.683Z,79.32
2019-02-21T02:44:12.479Z,79.70
2019-02-21T02:47:02.256Z,80.16
2019-02-21T02:49:52.042Z,80.13
2019-02-21T02:52:41.913Z,80.21
2019-02-21T02:55:31.708Z,80.56
2019-02-21T02:58:21.507Z,80.54
2019-02-21T03:01:11.374Z,80.48
2019-02-21T03:04:01.319Z,80.30
2019-02-21T03:06:45.689Z,79.92
2019-02-21T03:09:35.457Z,79.83
2019-02-21T03:12:25.220Z,80.10
2019-02-21T03:15:15.013Z,80.28
2019-02-21T03:18:04.780Z,80.66
2019-02-21T03:20:54.572Z,81.05
2019-02-21T03:23:44.358Z,81.40
2019-02-21T03:26:34.507Z,81.10
2019-02-21T03:29:24.310Z,81.22
2019-02-21T03:32:14.115Z,81.58
2019-02-21T03:35:03.893Z,82.23
2019-02-21T03:37:53.728Z,82.83
2019-02-21T03:40:43.609Z,83.36
2019-02-21T03:43:33.465Z,83.75
2019-02-21T03:46:23.332Z,84.03
2019-02-21T03:49:15.220Z,84.29
2019-02-21T03:52:04.994Z,84.54
2019-02-21T03:54:54.782Z,84.79
2019-02-21T03:57:44.558Z,85.05
2019-02-21T04:00:34.351Z,85.19
2019-02-21T04:03:24.132Z,85.42
2019-02-21T04:06:13.925Z,85.59
2019-02-21T04:09:04.532Z,85.84
2019-02-21T04:11:54.343Z,86.22
2019-02-21T04:14:44.115Z,86.65
2019-02-21T04:17:33.896Z,86.99
2019-02-21T04:20:23.690Z,87.53
2019-02-21T04:23:13.479Z,87.28
2019-02-21T04:26:03.282Z,86.43
2019-02-21T04:28:53.062Z,86.47
2019-02-21T04:31:42.833Z,86.00
2019-02-21T04:34:32.613Z,85.95
2019-02-21T04:37:22.379Z,86.13
2019-02-21T04:40:13.105Z,86.51
2019-02-21T04:43:02.880Z,87.22
2019-02-21T04:45:52.659Z,86.91
2019-02-21T04:48:42.446Z,86.99
2019-02-21T04:51:32.246Z,87.26
2019-02-21T04:54:22.046Z,87.67
2019-02-21T04:57:11.889Z,88.09
2019-02-21T05:00:01.696Z,88.41
2019-02-21T05:02:51.525Z,88.50
2019-02-21T05:05:41.678Z,88.76
2019-02-21T05:08:31.513Z,88.85
2019-02-21T05:11:21.340Z,89.18
2019-02-21T05:14:11.199Z,89.50
2019-02-21T05:17:01.022Z,89.72
2019-02-21T05:19:50.758Z,89.90
2019-02-21T05:22:40.588Z,89.89
2019-02-21T05:25:30.433Z,89.84
2019-02-21T05:28:41.181Z,89.88
2019-02-21T05:31:41.318Z,90.10
2019-02-21T05:34:50.005Z,90.36
2019-02-21T05:37:58.653Z,90.46
2019-02-21T05:41:07.349Z,90.58
2019-02-21T05:44:16.064Z,90.68
2019-02-21T05:47:21.769Z,90.57
2019-02-21T05:50:30.449Z,90.42
2019-02-21T05:53:39.091Z,90.33
2019-02-21T05:56:47.748Z,90.33
2019-02-21T05:59:52.617Z,90.31
2019-02-21T06:03:01.279Z,90.26
2019-02-21T06:06:06.592Z,90.26
2019-02-21T06:09:15.268Z,90.33
2019-02-21T06:12:33.110Z,90.38
2019-02-21T06:15:21.455Z,90.59
2019-02-21T06:18:30.083Z,90.86
2019-02-21T06:21:38.760Z,91.09
2019-02-21T06:24:47.417Z,91.18
2019-02-21T06:27:45.079Z,91.27
2019-02-21T06:30:47.892Z,91.23
2019-02-21T06:33:37.683Z,91.18
2019-02-21T06:36:27.506Z,90.97
2019-02-21T06:39:17.283Z,90.78
2019-02-21T06:42:07.073Z,90.41
2019-02-21T06:44:56.871Z,90.21
2019-02-21T06:47:46.655Z,89.75
2019-02-21T06:50:36.539Z,89.60
2019-02-21T06:53:26.404Z,89.33
2019-02-21T06:56:16.246Z,88.82
2019-02-21T06:59:06.021Z,87.29
2019-02-21T07:01:55.817Z,85.95
2019-02-21T07:04:45.651Z,85.18
2019-02-21T07:07:35.442Z,84.70
2019-02-21T07:10:25.246Z,84.69
2019-02-21T07:13:25.990Z,84.39
2019-02-21T07:15:52.657Z,82.37
2019-02-21T07:18:42.458Z,81.20
2019-02-21T07:21:32.239Z,79.36
2019-02-21T07:27:06.180Z,77.01
2019-02-21T07:29:56.003Z,76.76
2019-02-21T07:32:45.815Z,76.18
2019-02-21T07:35:35.609Z,75.70
2019-02-21T07:38:25.424Z,75.68
2019-02-21T07:41:15.682Z,75.10
2019-02-21T07:43:52.841Z,74.98
2019-02-21T07:46:42.711Z,74.89
2019-02-21T07:49:32.512Z,74.44
2019-02-21T07:52:22.327Z,74.13
2019-02-21T07:55:12.194Z,73.55
2019-02-21T07:58:03.944Z,73.05
2019-02-21T08:00:45.194Z,72.95
2019-02-21T08:03:43.825Z,72.24
2019-02-21T08:06:19.970Z,72.50
2019-02-21T08:09:01.351Z,72.28
2019-02-21T08:11:51.158Z,71.56
2019-02-21T08:14:43.301Z,71.31
2019-02-21T08:17:24.049Z,71.24
2019-02-21T08:20:13.867Z,70.62
2019-02-21T08:23:03.683Z,69.86
2019-02-21T08:25:53.450Z,69.05
2019-02-21T08:28:43.252Z,67.89
2019-02-21T08:31:33.012Z,66.53
2019-02-21T08:34:35.736Z,66.86
2019-02-21T08:37:25.522Z,66.28
2019-02-21T08:40:15.341Z,65.51
2019-02-21T08:43:05.158Z,64.73
2019-02-21T08:45:57.441Z,64.66
2019-02-21T08:48:32.480Z,62.99
2019-02-21T08:51:22.294Z,60.67
2019-02-21T08:54:12.131Z,60.39
2019-02-21T08:57:01.901Z,60.23
2019-02-21T08:59:51.656Z,59.41
2019-02-21T09:02:41.487Z,60.53
2019-02-21T09:05:31.259Z,60.73
2019-02-21T09:08:21.039Z,60.76
2019-02-21T09:11:10.834Z,60.03
2019-02-21T09:14:00.634Z,59.38
2019-02-21T09:16:50.415Z,59.60
2019-02-21T09:19:40.251Z,59.64
2019-02-21T09:22:30.054Z,58.47
2019-02-21T09:25:19.860Z,57.51
2019-02-21T09:28:09.705Z,56.97
2019-02-21T09:30:59.557Z,56.83
2019-02-21T09:33:49.355Z,56.72
2019-02-21T09:36:39.136Z,56.72
2019-02-21T09:39:28.952Z,55.77
2019-02-21T09:42:18.828Z,55.62
2019-02-21T09:45:11.729Z,55.19
2019-02-21T09:48:01.540Z,55.19
2019-02-21T09:50:51.392Z,55.11
2019-02-21T09:53:41.184Z,54.85
2019-02-21T09:56:31.063Z,53.90
2019-02-21T09:59:39.886Z,52.95
2019-02-21T10:02:29.730Z,51.73
2019-02-21T10:05:19.536Z,51.33
2019-02-21T10:08:09.342Z,51.56
2019-02-21T10:11:00.861Z,52.15
2019-02-21T10:13:45.407Z,52.66
2019-02-21T10:16:35.217Z,52.71
2019-02-21T10:19:25.002Z,51.85
2019-02-21T10:22:14.817Z,51.28
2019-02-21T10:25:05.270Z,51.98
2019-02-21T10:27:55.094Z,51.25
2019-02-21T10:30:44.901Z,52.30
2019-02-21T10:33:34.685Z,52.50
2019-02-21T10:36:24.562Z,53.04
2019-02-21T10:39:14.387Z,53.38
2019-02-21T10:42:04.340Z,53.58
2019-02-21T10:44:54.135Z,54.12
2019-02-21T10:47:43.944Z,54.59
2019-02-21T10:50:33.734Z,55.34
2019-02-21T10:53:23.533Z,54.97
2019-02-21T10:56:13.379Z,55.04
2019-02-21T10:59:03.191Z,55.09
2019-02-21T11:01:53.082Z,53.81
2019-02-21T11:04:54.073Z,53.49
2019-02-21T11:07:25.330Z,53.50
2019-02-21T11:13:36.780Z,53.78
2019-02-21T11:16:26.556Z,53.30
2019-02-21T11:19:16.369Z,53.22
2019-02-21T11:22:06.109Z,53.18
2019-02-21T11:24:55.899Z,53.26
2019-02-21T11:27:45.646Z,52.34
2019-02-21T11:30:35.439Z,51.28
2019-02-21T11:33:25.183Z,50.42
2019-02-21T11:36:14.986Z,50.48
2019-02-21T11:42:28.934Z,49.97
2019-02-21T11:48:45.491Z,50.83
2019-02-21T11:51:35.250Z,51.28
2019-02-21T11:54:27.250Z,50.83
2019-02-21T11:57:16.610Z,50.48
2019-02-21T12:03:29.202Z,50.63
2019-02-21T12:06:18.993Z,49.65
2019-02-21T12:12:30.789Z,50.60
2019-02-21T12:15:20.547Z,50.38
2019-02-21T12:18:10.441Z,50.45
2019-02-21T12:21:00.199Z,50.71
2019-02-21T12:23:49.991Z,50.99
2019-02-21T12:26:39.773Z,51.31
2019-02-21T12:29:29.564Z,51.19
2019-02-21T12:32:19.396Z,51.42
2019-02-21T12:35:09.338Z,51.34
2019-02-21T12:37:59.136Z,51.40
2019-02-21T12:40:48.923Z,51.82
2019-02-21T12:43:38.673Z,52.22
2019-02-21T12:46:28.450Z,52.21
2019-02-21T12:49:18.191Z,51.28
2019-02-21T12:52:08.003Z,51.29
2019-02-21T12:54:57.751Z,50.46
2019-02-21T12:57:47.561Z,50.00
2019-02-21T13:00:37.341Z,47.69
2019-02-21T13:03:27.109Z,46.60
2019-02-21T13:06:16.908Z,46.54
2019-02-21T13:11:49.523Z,45.65
2019-02-21T13:14:39.288Z,45.87
2019-02-21T13:17:29.084Z,45.37
2019-02-21T13:20:18.869Z,44.47
2019-02-21T13:23:08.725Z,43.17
2019-02-21T13:25:58.630Z,42.60
2019-02-21T13:28:48.437Z,42.67
2019-02-21T13:31:38.214Z,42.60
2019-02-21T13:34:28.011Z,42.53
2019-02-21T13:37:28.280Z,42.60
2019-02-21T13:40:01.173Z,42.53
2019-02-21T13:42:50.933Z,42.05
2019-02-21T13:45:40.758Z,41.58
2019-02-21T13:48:30.599Z,41.49
2019-02-21T13:51:20.411Z,41.53
2019-02-21T13:54:10.232Z,42.28
2019-02-21T13:57:00.062Z,42.41
2019-02-21T13:59:49.862Z,41.96
2019-02-21T14:02:39.702Z,42.16
2019-02-21T14:05:29.488Z,42.39
2019-02-21T14:08:19.309Z,42.50
2019-02-21T14:11:09.197Z,44.18
2019-02-21T14:13:58.994Z,45.25
2019-02-21T14:16:48.787Z,46.34
2019-02-21T14:19:38.667Z,47.01
2019-02-21T14:22:28.540Z,47.37
2019-02-21T14:25:18.330Z,47.22
2019-02-21T14:28:08.148Z,48.14
2019-02-21T14:30:57.981Z,48.66
2019-02-21T14:33:47.772Z,48.78
2019-02-21T14:36:37.584Z,48.48
2019-02-21T14:39:27.393Z,49.06
2019-02-21T14:42:17.177Z,48.33
2019-02-21T14:45:08.050Z,48.93
2019-02-21T14:47:57.846Z,49.05
2019-02-21T14:50:47.622Z,49.44
2019-02-21T14:53:37.427Z,49.18
2019-02-21T14:56:27.223Z,49.32
2019-02-21T15:02:20.176Z,49.97
2019-02-21T15:05:10.237Z,50.18
2019-02-21T15:07:53.023Z,49.67
2019-02-21T15:10:42.852Z,49.68
2019-02-21T15:13:32.671Z,49.46
2019-02-21T15:16:22.450Z,49.37
2019-02-21T15:19:12.252Z,49.01
2019-02-21T15:22:02.044Z,48.91
2019-02-21T15:24:51.814Z,48.78
2019-02-21T15:27:41.628Z,48.75
2019-02-21T15:30:31.563Z,48.58
2019-02-21T15:33:21.376Z,48.91
2019-02-21T15:36:11.243Z,48.58
2019-02-21T15:39:01.053Z,48.83
2019-02-21T15:41:50.878Z,49.08
2019-02-21T15:44:40.662Z,49.25
2019-02-21T15:47:30.456Z,50.13
2019-02-21T15:50:20.487Z,50.56
2019-02-21T15:53:10.386Z,51.12
2019-02-21T15:56:00.189Z,51.77
2019-02-21T15:58:49.974Z,51.93
2019-02-21T16:01:47.081Z,52.59
2019-02-21T16:04:24.033Z,53.16
2019-02-21T16:07:13.846Z,52.91
2019-02-21T16:10:03.655Z,52.79
2019-02-21T16:12:53.541Z,53.05
2019-02-21T16:15:43.366Z,52.73
2019-02-21T16:18:33.138Z,53.01
2019-02-21T16:21:22.943Z,53.22
2019-02-21T16:24:12.753Z,53.38
2019-02-21T16:27:02.616Z,53.44
2019-02-21T16:29:52.435Z,54.18
2019-02-21T16:32:42.265Z,55.01
2019-02-21T16:35:32.042Z,55.95
2019-02-21T16:38:21.891Z,56.56
2019-02-21T16:41:11.689Z,57.27
2019-02-21T16:44:01.501Z,57.82
2019-02-21T16:46:51.274Z,58.06
2019-02-21T16:49:41.148Z,58.16
2019-02-21T16:52:30.939Z,58.20
2019-02-21T16:55:20.759Z,58.54
2019-02-21T16:58:10.544Z,58.48
2019-02-21T17:01:00.326Z,58.87
2019-02-21T17:03:50.125Z,58.90
2019-02-21T17:06:39.936Z,58.91
2019-02-21T17:09:29.710Z,58.98
2019-02-21T17:12:19.502Z,59.16
2019-02-21T17:15:10.582Z,59.19
2019-02-21T17:18:03.829Z,59.17
2019-02-21T17:20:44.518Z,59.18
2019-02-21T17:23:34.292Z,59.40
2019-02-21T17:26:24.034Z,59.66
2019-02-21T17:29:13.831Z,59.52
2019-02-21T17:32:03.613Z,59.59
2019-02-21T17:34:53.411Z,59.79
2019-02-21T17:37:43.161Z,59.90
2019-02-21T17:40:32.969Z,59.83
2019-02-21T17:43:22.726Z,59.89
2019-02-21T17:46:12.540Z,60.16
2019-02-21T17:49:02.296Z,59.97
2019-02-21T17:51:53.810Z,59.68
2019-02-21T17:54:35.131Z,59.49
2019-02-21T17:57:24.918Z,59.52
2019-02-21T18:00:17.506Z,59.64
2019-02-21T18:03:07.344Z,59.54
2019-02-21T18:05:57.138Z,59.35
2019-02-21T18:08:46.927Z,59.61
2019-02-21T18:11:36.765Z,59.76
2019-02-21T18:14:26.543Z,60.15
2019-02-21T18:17:16.343Z,60.89
2019-02-21T18:20:06.712Z,60.99
2019-02-21T18:22:56.507Z,60.91
2019-02-21T18:26:07.112Z,59.89
2019-02-21T18:28:56.927Z,59.43
2019-02-21T18:31:46.744Z,59.41
2019-02-21T18:34:36.604Z,58.77
2019-02-21T18:37:26.441Z,58.95
2019-02-21T18:40:19.699Z,58.55
2019-02-21T18:43:08.329Z,57.92
2019-02-21T18:45:58.131Z,57.84
2019-02-21T18:48:47.919Z,57.79
2019-02-21T18:51:37.723Z,58.00
2019-02-21T18:54:27.592Z,57.81
2019-02-21T18:57:17.405Z,57.88
2019-02-21T19:03:33.429Z,58.52
2019-02-21T19:06:23.228Z,58.92
2019-02-21T19:09:13.051Z,59.09
2019-02-21T19:12:02.859Z,58.98
2019-02-21T19:14:52.744Z,59.23
2019-02-21T19:17:42.527Z,59.71
2019-02-21T19:20:32.369Z,59.17
2019-02-21T19:23:22.227Z,59.08
2019-02-21T19:26:12.401Z,59.23
2019-02-21T19:29:02.317Z,59.18
2019-02-21T19:31:52.186Z,59.17
2019-02-21T19:34:42.069Z,59.12
2019-02-21T19:37:32.073Z,59.00
2019-02-21T19:40:21.973Z,58.72
2019-02-21T19:43:11.885Z,58.75
2019-02-21T19:46:01.768Z,59.13
2019-02-21T19:48:51.745Z,58.94
2019-02-21T19:51:41.686Z,58.90
2019-02-21T19:54:31.529Z,58.75
2019-02-21T19:57:21.412Z,59.22
2019-02-21T20:00:26.231Z,59.39
2019-02-21T20:03:16.065Z,59.66
2019-02-21T20:06:06.001Z,59.83
2019-02-21T20:08:55.947Z,59.55
2019-02-21T20:11:45.754Z,59.69
2019-02-21T20:14:35.605Z,59.37
2019-02-21T20:17:25.534Z,59.47
2019-02-21T20:20:16.751Z,59.73
2019-02-21T20:23:06.570Z,59.61
2019-02-21T20:25:56.392Z,59.75
2019-02-21T20:28:46.303Z,60.28
2019-02-21T20:31:37.247Z,59.97
2019-02-21T20:34:27.166Z,59.67
2019-02-21T20:37:17.004Z,59.68
2019-02-21T20:40:07.195Z,59.93
2019-02-21T20:42:57.121Z,60.32
2019-02-21T20:45:53.156Z,60.09
2019-02-21T20:48:30.689Z,60.46
2019-02-21T20:51:13.462Z,60.56
2019-02-21T20:54:03.315Z,60.80
2019-02-21T20:56:53.166Z,60.79
2019-02-21T20:59:43.003Z,60.89
2019-02-21T21:02:33.512Z,61.17
2019-02-21T21:05:23.700Z,61.04
2019-02-21T21:08:13.670Z,60.86
2019-02-21T21:11:03.733Z,61.00
2019-02-21T21:13:56.514Z,60.72
2019-02-21T21:16:48.384Z,60.42
2019-02-21T21:19:38.250Z,60.31
2019-02-21T21:22:28.118Z,59.99
2019-02-21T21:25:18.009Z,59.78
2019-02-21T21:28:07.999Z,59.58
2019-02-21T21:30:57.862Z,59.20
2019-02-21T21:33:47.784Z,59.47
2019-02-21T21:36:37.587Z,59.43
2019-02-21T21:39:27.459Z,59.34
2019-02-21T21:42:17.342Z,59.08
2019-02-21T21:45:09.561Z,59.13
2019-02-21T21:47:59.406Z,59.14
2019-02-21T21:50:49.264Z,59.19
2019-02-21T21:53:39.106Z,59.60
2019-02-21T21:56:28.915Z,59.81
2019-02-21T21:59:18.705Z,60.21
2019-02-21T22:02:08.595Z,60.50
2019-02-21T22:04:58.419Z,60.60
2019-02-21T22:07:49.290Z,60.66
2019-02-21T22:10:25.793Z,61.07
2019-02-21T22:13:15.594Z,60.06
2019-02-21T22:16:05.390Z,60.73
2019-02-21T22:18:55.181Z,59.78
2019-02-21T22:21:44.976Z,59.02
2019-02-21T22:24:34.784Z,58.62
2019-02-21T22:27:24.970Z,58.88
2019-02-21T22:30:10.037Z,58.71
2019-02-21T22:32:59.837Z,58.89
2019-02-21T22:35:50.029Z,59.14
2019-02-21T22:38:39.878Z,59.11
2019-02-21T22:41:48.710Z,59.43
2019-02-21T22:44:38.496Z,59.63
2019-02-21T22:47:28.293Z,59.37
2019-02-21T22:50:18.120Z,59.14
2019-02-21T22:53:07.979Z,59.13
2019-02-21T22:55:57.773Z,59.39
2019-02-21T22:58:47.584Z,59.52
2019-02-21T23:01:40.403Z,59.96
2019-02-21T23:05:08.323Z,59.81
2019-02-21T23:08:22.122Z,59.38
2019-02-21T23:11:12.054Z,60.04
2019-02-21T23:14:01.816Z,59.50
2019-02-21T23:16:51.691Z,59.91
2019-02-21T23:19:41.491Z,59.69
2019-02-21T23:22:31.306Z,60.14
2019-02-21T23:25:21.107Z,59.72
2019-02-21T23:28:10.920Z,60.07
2019-02-21T23:31:00.679Z,60.32
2019-02-21T23:36:50.195Z,60.84
2019-02-21T23:39:39.959Z,60.87
2019-02-21T23:42:29.774Z,60.86
2019-02-21T23:45:19.556Z,60.44
2019-02-21T23:48:09.390Z,60.95
2019-02-21T23:50:59.177Z,61.29
2019-02-21T23:53:48.989Z,61.30
2019-02-21T23:56:39.773Z,61.38
2019-02-21T23:59:29.574Z,61.47
